sensor_id;sensor_type;location;lat;lon;timestamp;P1;durP1;ratioP1;P2;durP2;ratioP2
64520;SDS011;50896;46.714;17.322;2024-03-08T00:00:09;60.45;;;33.03;;
64520;SDS011;50896;46.714;17.322;2024-03-08T00:02:42;61.95;;;33.38;;
64520;SDS011;50896;46.714;17.322;2024-03-08T00:05:09;62.58;;;32.42;;
64520;SDS011;50896;46.714;17.322;2024-03-08T00:07:37;59.85;;;32.83;;
64520;SDS011;50896;46.714;17.322;2024-03-08T00:10:05;60.45;;;32.70;;
64520;SDS011;50896;46.714;17.322;2024-03-08T00:12:38;61.08;;;34.00;;
64520;SDS011;50896;46.714;17.322;2024-03-08T00:17:36;62.08;;;31.35;;
64520;SDS011;50896;46.714;17.322;2024-03-08T00:20:03;63.55;;;33.78;;
64520;SDS011;50896;46.714;17.322;2024-03-08T00:22:35;55.00;;;32.53;;
64520;SDS011;50896;46.714;17.322;2024-03-08T00:25:02;60.58;;;33.50;;
64520;SDS011;50896;46.714;17.322;2024-03-08T00:27:36;63.67;;;34.25;;
64520;SDS011;50896;46.714;17.322;2024-03-08T00:30:04;67.50;;;34.47;;
64520;SDS011;50896;46.714;17.322;2024-03-08T00:32:32;61.15;;;33.35;;
64520;SDS011;50896;46.714;17.322;2024-03-08T00:34:59;62.78;;;34.92;;
64520;SDS011;50896;46.714;17.322;2024-03-08T00:37:26;63.80;;;33.10;;
64520;SDS011;50896;46.714;17.322;2024-03-08T00:39:53;62.65;;;33.95;;
64520;SDS011;50896;46.714;17.322;2024-03-08T00:42:20;62.95;;;33.25;;
64520;SDS011;50896;46.714;17.322;2024-03-08T00:44:47;61.47;;;33.35;;
64520;SDS011;50896;46.714;17.322;2024-03-08T00:47:18;63.22;;;33.60;;
64520;SDS011;50896;46.714;17.322;2024-03-08T00:49:45;62.30;;;34.05;;
64520;SDS011;50896;46.714;17.322;2024-03-08T00:52:13;64.43;;;32.83;;
64520;SDS011;50896;46.714;17.322;2024-03-08T00:54:40;65.68;;;34.38;;
64520;SDS011;50896;46.714;17.322;2024-03-08T00:57:07;61.20;;;34.00;;
64520;SDS011;50896;46.714;17.322;2024-03-08T00:59:34;62.38;;;33.13;;
64520;SDS011;50896;46.714;17.322;2024-03-08T01:02:01;57.05;;;32.20;;
64520;SDS011;50896;46.714;17.322;2024-03-08T01:04:28;65.57;;;34.15;;
64520;SDS011;50896;46.714;17.322;2024-03-08T01:06:56;64.18;;;34.75;;
64520;SDS011;50896;46.714;17.322;2024-03-08T01:09:24;66.05;;;34.63;;
64520;SDS011;50896;46.714;17.322;2024-03-08T01:11:51;69.25;;;33.75;;
64520;SDS011;50896;46.714;17.322;2024-03-08T01:14:21;64.15;;;34.22;;
64520;SDS011;50896;46.714;17.322;2024-03-08T01:16:57;65.25;;;34.67;;
64520;SDS011;50896;46.714;17.322;2024-03-08T01:19:25;67.43;;;34.95;;
64520;SDS011;50896;46.714;17.322;2024-03-08T01:21:52;66.63;;;34.05;;
64520;SDS011;50896;46.714;17.322;2024-03-08T01:24:19;64.88;;;33.17;;
64520;SDS011;50896;46.714;17.322;2024-03-08T01:26:46;67.40;;;35.17;;
64520;SDS011;50896;46.714;17.322;2024-03-08T01:29:14;66.78;;;35.53;;
64520;SDS011;50896;46.714;17.322;2024-03-08T01:31:41;60.05;;;33.65;;
64520;SDS011;50896;46.714;17.322;2024-03-08T01:34:07;66.40;;;34.22;;
64520;SDS011;50896;46.714;17.322;2024-03-08T01:36:34;65.28;;;34.70;;
64520;SDS011;50896;46.714;17.322;2024-03-08T01:39:03;66.00;;;34.20;;
64520;SDS011;50896;46.714;17.322;2024-03-08T01:41:35;65.93;;;35.15;;
64520;SDS011;50896;46.714;17.322;2024-03-08T01:44:02;67.78;;;35.15;;
64520;SDS011;50896;46.714;17.322;2024-03-08T01:46:29;62.17;;;34.58;;
64520;SDS011;50896;46.714;17.322;2024-03-08T01:48:57;64.60;;;34.05;;
64520;SDS011;50896;46.714;17.322;2024-03-08T01:51:25;62.80;;;32.88;;
64520;SDS011;50896;46.714;17.322;2024-03-08T01:53:51;63.45;;;34.33;;
64520;SDS011;50896;46.714;17.322;2024-03-08T01:56:18;66.18;;;35.17;;
64520;SDS011;50896;46.714;17.322;2024-03-08T01:58:45;65.05;;;34.92;;
64520;SDS011;50896;46.714;17.322;2024-03-08T02:01:15;70.25;;;35.17;;
64520;SDS011;50896;46.714;17.322;2024-03-08T02:03:42;70.40;;;36.13;;
64520;SDS011;50896;46.714;17.322;2024-03-08T02:06:11;67.17;;;34.73;;
64520;SDS011;50896;46.714;17.322;2024-03-08T02:08:44;67.78;;;35.20;;
64520;SDS011;50896;46.714;17.322;2024-03-08T02:11:12;69.97;;;35.35;;
64520;SDS011;50896;46.714;17.322;2024-03-08T02:13:40;70.35;;;36.28;;
64520;SDS011;50896;46.714;17.322;2024-03-08T02:16:07;70.00;;;36.30;;
64520;SDS011;50896;46.714;17.322;2024-03-08T02:18:35;69.95;;;37.05;;
64520;SDS011;50896;46.714;17.322;2024-03-08T02:21:03;68.97;;;36.90;;
64520;SDS011;50896;46.714;17.322;2024-03-08T02:23:31;68.97;;;36.90;;
64520;SDS011;50896;46.714;17.322;2024-03-08T02:25:59;67.57;;;34.58;;
64520;SDS011;50896;46.714;17.322;2024-03-08T02:28:26;69.30;;;36.65;;
64520;SDS011;50896;46.714;17.322;2024-03-08T02:30:54;77.30;;;38.58;;
64520;SDS011;50896;46.714;17.322;2024-03-08T02:33:23;73.35;;;36.95;;
64520;SDS011;50896;46.714;17.322;2024-03-08T02:35:50;72.38;;;35.00;;
64520;SDS011;50896;46.714;17.322;2024-03-08T02:38:19;72.10;;;36.63;;
64520;SDS011;50896;46.714;17.322;2024-03-08T02:40:47;68.97;;;35.42;;
64520;SDS011;50896;46.714;17.322;2024-03-08T02:43:15;67.43;;;35.40;;
64520;SDS011;50896;46.714;17.322;2024-03-08T02:45:44;62.13;;;33.17;;
64520;SDS011;50896;46.714;17.322;2024-03-08T02:48:15;67.03;;;35.22;;
64520;SDS011;50896;46.714;17.322;2024-03-08T02:50:45;64.88;;;34.40;;
64520;SDS011;50896;46.714;17.322;2024-03-08T02:53:13;69.40;;;34.92;;
64520;SDS011;50896;46.714;17.322;2024-03-08T02:55:41;67.22;;;36.17;;
64520;SDS011;50896;46.714;17.322;2024-03-08T02:58:08;70.90;;;38.03;;
64520;SDS011;50896;46.714;17.322;2024-03-08T03:00:37;70.07;;;36.03;;
64520;SDS011;50896;46.714;17.322;2024-03-08T03:03:07;72.45;;;35.78;;
64520;SDS011;50896;46.714;17.322;2024-03-08T03:05:34;71.28;;;36.65;;
64520;SDS011;50896;46.714;17.322;2024-03-08T03:08:01;72.47;;;35.10;;
64520;SDS011;50896;46.714;17.322;2024-03-08T03:10:30;66.88;;;35.53;;
64520;SDS011;50896;46.714;17.322;2024-03-08T03:12:57;69.75;;;35.47;;
64520;SDS011;50896;46.714;17.322;2024-03-08T03:15:24;69.85;;;35.58;;
64520;SDS011;50896;46.714;17.322;2024-03-08T03:17:53;68.78;;;33.95;;
64520;SDS011;50896;46.714;17.322;2024-03-08T03:20:22;64.43;;;34.88;;
64520;SDS011;50896;46.714;17.322;2024-03-08T03:23:10;74.90;;;36.50;;
64520;SDS011;50896;46.714;17.322;2024-03-08T03:25:40;72.28;;;36.45;;
64520;SDS011;50896;46.714;17.322;2024-03-08T03:28:08;68.15;;;34.75;;
64520;SDS011;50896;46.714;17.322;2024-03-08T03:30:37;70.37;;;35.37;;
64520;SDS011;50896;46.714;17.322;2024-03-08T03:33:04;72.35;;;36.35;;
64520;SDS011;50896;46.714;17.322;2024-03-08T03:35:34;71.40;;;36.72;;
64520;SDS011;50896;46.714;17.322;2024-03-08T03:38:03;69.13;;;35.63;;
64520;SDS011;50896;46.714;17.322;2024-03-08T03:40:30;70.03;;;36.00;;
64520;SDS011;50896;46.714;17.322;2024-03-08T03:42:57;73.70;;;36.92;;
64520;SDS011;50896;46.714;17.322;2024-03-08T03:45:25;68.13;;;35.70;;
64520;SDS011;50896;46.714;17.322;2024-03-08T03:47:51;68.38;;;34.65;;
64520;SDS011;50896;46.714;17.322;2024-03-08T03:50:19;65.13;;;35.63;;
64520;SDS011;50896;46.714;17.322;2024-03-08T03:52:46;69.65;;;35.85;;
64520;SDS011;50896;46.714;17.322;2024-03-08T03:55:13;68.65;;;35.20;;
64520;SDS011;50896;46.714;17.322;2024-03-08T03:57:41;68.72;;;34.47;;
64520;SDS011;50896;46.714;17.322;2024-03-08T04:00:08;70.95;;;35.70;;
64520;SDS011;50896;46.714;17.322;2024-03-08T04:02:40;70.28;;;33.70;;
64520;SDS011;50896;46.714;17.322;2024-03-08T04:05:08;61.40;;;31.73;;
64520;SDS011;50896;46.714;17.322;2024-03-08T04:07:36;65.25;;;32.38;;
64520;SDS011;50896;46.714;17.322;2024-03-08T04:10:04;66.53;;;32.72;;
64520;SDS011;50896;46.714;17.322;2024-03-08T04:12:33;61.33;;;31.92;;
64520;SDS011;50896;46.714;17.322;2024-03-08T04:15:00;63.67;;;33.00;;
64520;SDS011;50896;46.714;17.322;2024-03-08T04:17:27;66.22;;;32.83;;
64520;SDS011;50896;46.714;17.322;2024-03-08T04:19:54;65.10;;;32.22;;
64520;SDS011;50896;46.714;17.322;2024-03-08T04:22:21;60.38;;;32.35;;
64520;SDS011;50896;46.714;17.322;2024-03-08T04:24:49;65.82;;;34.35;;
64520;SDS011;50896;46.714;17.322;2024-03-08T04:27:15;64.28;;;32.97;;
64520;SDS011;50896;46.714;17.322;2024-03-08T04:29:42;58.67;;;31.40;;
64520;SDS011;50896;46.714;17.322;2024-03-08T04:32:09;61.83;;;32.50;;
64520;SDS011;50896;46.714;17.322;2024-03-08T04:34:36;63.92;;;32.85;;
64520;SDS011;50896;46.714;17.322;2024-03-08T04:37:03;60.60;;;32.22;;
64520;SDS011;50896;46.714;17.322;2024-03-08T04:39:31;66.88;;;33.92;;
64520;SDS011;50896;46.714;17.322;2024-03-08T04:41:59;64.00;;;33.67;;
64520;SDS011;50896;46.714;17.322;2024-03-08T04:44:33;68.13;;;34.33;;
64520;SDS011;50896;46.714;17.322;2024-03-08T04:47:00;66.00;;;33.65;;
64520;SDS011;50896;46.714;17.322;2024-03-08T04:49:27;64.13;;;34.63;;
64520;SDS011;50896;46.714;17.322;2024-03-08T04:51:54;68.18;;;34.40;;
64520;SDS011;50896;46.714;17.322;2024-03-08T04:54:21;64.18;;;34.10;;
64520;SDS011;50896;46.714;17.322;2024-03-08T04:56:48;72.13;;;35.38;;
64520;SDS011;50896;46.714;17.322;2024-03-08T04:59:15;67.25;;;34.63;;
64520;SDS011;50896;46.714;17.322;2024-03-08T05:01:41;66.18;;;33.53;;
64520;SDS011;50896;46.714;17.322;2024-03-08T05:04:09;62.55;;;33.80;;
64520;SDS011;50896;46.714;17.322;2024-03-08T05:06:36;63.55;;;33.15;;
64520;SDS011;50896;46.714;17.322;2024-03-08T05:09:03;65.18;;;34.10;;
64520;SDS011;50896;46.714;17.322;2024-03-08T05:11:41;72.10;;;36.15;;
64520;SDS011;50896;46.714;17.322;2024-03-08T05:14:09;69.05;;;34.42;;
64520;SDS011;50896;46.714;17.322;2024-03-08T05:16:36;69.65;;;33.90;;
64520;SDS011;50896;46.714;17.322;2024-03-08T05:19:03;68.65;;;34.95;;
64520;SDS011;50896;46.714;17.322;2024-03-08T05:21:30;64.07;;;33.33;;
64520;SDS011;50896;46.714;17.322;2024-03-08T05:23:56;71.03;;;34.50;;
64520;SDS011;50896;46.714;17.322;2024-03-08T05:26:23;67.35;;;34.28;;
64520;SDS011;50896;46.714;17.322;2024-03-08T05:28:50;67.63;;;34.47;;
64520;SDS011;50896;46.714;17.322;2024-03-08T05:31:20;68.03;;;33.92;;
64520;SDS011;50896;46.714;17.322;2024-03-08T05:33:50;73.90;;;37.17;;
64520;SDS011;50896;46.714;17.322;2024-03-08T05:36:17;71.63;;;38.10;;
64520;SDS011;50896;46.714;17.322;2024-03-08T05:38:44;70.47;;;36.70;;
64520;SDS011;50896;46.714;17.322;2024-03-08T05:41:11;71.55;;;36.47;;
64520;SDS011;50896;46.714;17.322;2024-03-08T05:43:41;73.63;;;36.17;;
64520;SDS011;50896;46.714;17.322;2024-03-08T05:46:08;76.40;;;37.05;;
64520;SDS011;50896;46.714;17.322;2024-03-08T05:48:35;72.80;;;37.05;;
64520;SDS011;50896;46.714;17.322;2024-03-08T05:51:02;72.70;;;35.88;;
64520;SDS011;50896;46.714;17.322;2024-03-08T05:53:29;78.18;;;38.30;;
64520;SDS011;50896;46.714;17.322;2024-03-08T05:55:58;79.75;;;39.65;;
64520;SDS011;50896;46.714;17.322;2024-03-08T05:58:25;71.40;;;36.88;;
64520;SDS011;50896;46.714;17.322;2024-03-08T06:00:52;75.65;;;39.13;;
64520;SDS011;50896;46.714;17.322;2024-03-08T06:03:19;72.78;;;36.72;;
64520;SDS011;50896;46.714;17.322;2024-03-08T06:05:48;74.45;;;38.15;;
64520;SDS011;50896;46.714;17.322;2024-03-08T06:08:15;78.93;;;38.97;;
64520;SDS011;50896;46.714;17.322;2024-03-08T06:10:43;75.82;;;38.88;;
64520;SDS011;50896;46.714;17.322;2024-03-08T06:13:10;73.07;;;37.72;;
64520;SDS011;50896;46.714;17.322;2024-03-08T06:15:39;68.83;;;36.13;;
64520;SDS011;50896;46.714;17.322;2024-03-08T06:18:06;65.70;;;35.30;;
64520;SDS011;50896;46.714;17.322;2024-03-08T06:20:33;73.15;;;36.72;;
64520;SDS011;50896;46.714;17.322;2024-03-08T06:23:00;74.90;;;36.03;;
64520;SDS011;50896;46.714;17.322;2024-03-08T06:25:28;75.63;;;38.55;;
64520;SDS011;50896;46.714;17.322;2024-03-08T06:27:54;72.43;;;37.58;;
64520;SDS011;50896;46.714;17.322;2024-03-08T06:30:21;78.50;;;37.85;;
64520;SDS011;50896;46.714;17.322;2024-03-08T06:32:48;72.15;;;37.00;;
64520;SDS011;50896;46.714;17.322;2024-03-08T06:35:16;75.25;;;36.30;;
64520;SDS011;50896;46.714;17.322;2024-03-08T06:37:43;78.63;;;37.63;;
64520;SDS011;50896;46.714;17.322;2024-03-08T06:40:11;73.03;;;37.17;;
64520;SDS011;50896;46.714;17.322;2024-03-08T06:42:41;76.20;;;37.65;;
64520;SDS011;50896;46.714;17.322;2024-03-08T06:45:08;76.57;;;37.85;;
64520;SDS011;50896;46.714;17.322;2024-03-08T06:47:36;71.93;;;38.15;;
64520;SDS011;50896;46.714;17.322;2024-03-08T06:50:04;73.50;;;37.38;;
64520;SDS011;50896;46.714;17.322;2024-03-08T06:52:32;67.72;;;34.55;;
64520;SDS011;50896;46.714;17.322;2024-03-08T06:54:59;72.20;;;36.45;;
64520;SDS011;50896;46.714;17.322;2024-03-08T06:57:28;67.50;;;36.20;;
64520;SDS011;50896;46.714;17.322;2024-03-08T06:59:55;74.32;;;37.65;;
64520;SDS011;50896;46.714;17.322;2024-03-08T07:02:23;67.22;;;35.80;;
64520;SDS011;50896;46.714;17.322;2024-03-08T07:04:54;69.22;;;33.72;;
64520;SDS011;50896;46.714;17.322;2024-03-08T07:07:21;73.35;;;37.35;;
64520;SDS011;50896;46.714;17.322;2024-03-08T07:09:48;65.07;;;34.35;;
64520;SDS011;50896;46.714;17.322;2024-03-08T07:12:16;68.60;;;33.95;;
64520;SDS011;50896;46.714;17.322;2024-03-08T07:14:43;72.78;;;37.67;;
64520;SDS011;50896;46.714;17.322;2024-03-08T07:17:12;73.80;;;36.80;;
64520;SDS011;50896;46.714;17.322;2024-03-08T07:19:39;71.57;;;36.35;;
64520;SDS011;50896;46.714;17.322;2024-03-08T07:22:06;70.50;;;36.05;;
64520;SDS011;50896;46.714;17.322;2024-03-08T07:24:35;72.25;;;37.72;;
64520;SDS011;50896;46.714;17.322;2024-03-08T07:27:20;75.95;;;35.47;;
64520;SDS011;50896;46.714;17.322;2024-03-08T07:29:47;70.13;;;35.28;;
64520;SDS011;50896;46.714;17.322;2024-03-08T07:32:14;68.80;;;35.30;;
64520;SDS011;50896;46.714;17.322;2024-03-08T07:34:48;68.93;;;35.17;;
64520;SDS011;50896;46.714;17.322;2024-03-08T07:39:45;67.50;;;33.53;;
64520;SDS011;50896;46.714;17.322;2024-03-08T07:42:12;65.53;;;34.70;;
64520;SDS011;50896;46.714;17.322;2024-03-08T07:44:39;70.05;;;36.10;;
64520;SDS011;50896;46.714;17.322;2024-03-08T07:47:06;68.50;;;34.28;;
64520;SDS011;50896;46.714;17.322;2024-03-08T07:49:36;70.95;;;36.83;;
64520;SDS011;50896;46.714;17.322;2024-03-08T07:52:05;66.88;;;34.58;;
64520;SDS011;50896;46.714;17.322;2024-03-08T07:54:33;64.00;;;32.92;;
64520;SDS011;50896;46.714;17.322;2024-03-08T07:57:01;65.45;;;34.13;;
64520;SDS011;50896;46.714;17.322;2024-03-08T07:59:29;65.25;;;34.05;;
64520;SDS011;50896;46.714;17.322;2024-03-08T08:01:57;64.20;;;33.03;;
64520;SDS011;50896;46.714;17.322;2024-03-08T08:04:24;62.75;;;32.83;;
64520;SDS011;50896;46.714;17.322;2024-03-08T08:06:51;64.43;;;33.35;;
64520;SDS011;50896;46.714;17.322;2024-03-08T08:09:18;68.00;;;34.50;;
64520;SDS011;50896;46.714;17.322;2024-03-08T08:11:55;67.18;;;33.30;;
64520;SDS011;50896;46.714;17.322;2024-03-08T08:14:22;60.75;;;33.03;;
64520;SDS011;50896;46.714;17.322;2024-03-08T08:16:49;71.18;;;35.05;;
64520;SDS011;50896;46.714;17.322;2024-03-08T08:19:19;64.80;;;32.88;;
64520;SDS011;50896;46.714;17.322;2024-03-08T08:21:46;64.43;;;34.00;;
64520;SDS011;50896;46.714;17.322;2024-03-08T08:24:13;64.75;;;33.22;;
64520;SDS011;50896;46.714;17.322;2024-03-08T08:26:39;70.63;;;40.75;;
64520;SDS011;50896;46.714;17.322;2024-03-08T08:29:07;61.30;;;32.17;;
64520;SDS011;50896;46.714;17.322;2024-03-08T08:31:34;62.35;;;32.97;;
64520;SDS011;50896;46.714;17.322;2024-03-08T08:34:01;60.75;;;31.73;;
64520;SDS011;50896;46.714;17.322;2024-03-08T08:36:31;62.55;;;31.23;;
64520;SDS011;50896;46.714;17.322;2024-03-08T08:38:58;64.60;;;33.08;;
64520;SDS011;50896;46.714;17.322;2024-03-08T08:41:25;61.92;;;32.67;;
64520;SDS011;50896;46.714;17.322;2024-03-08T08:43:53;64.80;;;32.55;;
64520;SDS011;50896;46.714;17.322;2024-03-08T08:46:34;61.10;;;31.90;;
64520;SDS011;50896;46.714;17.322;2024-03-08T08:49:07;58.22;;;31.38;;
64520;SDS011;50896;46.714;17.322;2024-03-08T08:51:37;65.93;;;33.42;;
64520;SDS011;50896;46.714;17.322;2024-03-08T08:54:05;64.03;;;32.50;;
64520;SDS011;50896;46.714;17.322;2024-03-08T08:56:36;61.35;;;31.85;;
64520;SDS011;50896;46.714;17.322;2024-03-08T08:59:03;60.72;;;32.92;;
64520;SDS011;50896;46.714;17.322;2024-03-08T09:01:31;64.47;;;33.13;;
64520;SDS011;50896;46.714;17.322;2024-03-08T09:03:58;59.35;;;30.83;;
64520;SDS011;50896;46.714;17.322;2024-03-08T09:06:25;58.28;;;31.25;;
64520;SDS011;50896;46.714;17.322;2024-03-08T09:08:52;58.70;;;31.15;;
64520;SDS011;50896;46.714;17.322;2024-03-08T09:11:19;54.83;;;29.67;;
64520;SDS011;50896;46.714;17.322;2024-03-08T09:13:46;56.08;;;30.48;;
64520;SDS011;50896;46.714;17.322;2024-03-08T09:16:13;59.53;;;30.20;;
64520;SDS011;50896;46.714;17.322;2024-03-08T09:18:41;54.28;;;30.85;;
64520;SDS011;50896;46.714;17.322;2024-03-08T09:21:08;57.35;;;29.33;;
64520;SDS011;50896;46.714;17.322;2024-03-08T09:23:39;54.15;;;29.00;;
64520;SDS011;50896;46.714;17.322;2024-03-08T09:26:07;54.00;;;30.15;;
64520;SDS011;50896;46.714;17.322;2024-03-08T09:28:48;53.30;;;29.08;;
64520;SDS011;50896;46.714;17.322;2024-03-08T09:31:15;58.35;;;30.85;;
64520;SDS011;50896;46.714;17.322;2024-03-08T09:33:42;54.20;;;29.92;;
64520;SDS011;50896;46.714;17.322;2024-03-08T09:36:09;57.95;;;29.80;;
64520;SDS011;50896;46.714;17.322;2024-03-08T09:38:35;57.65;;;29.13;;
64520;SDS011;50896;46.714;17.322;2024-03-08T09:41:02;53.55;;;28.98;;
64520;SDS011;50896;46.714;17.322;2024-03-08T09:43:30;51.10;;;28.15;;
64520;SDS011;50896;46.714;17.322;2024-03-08T09:45:57;52.95;;;27.23;;
64520;SDS011;50896;46.714;17.322;2024-03-08T09:48:25;51.50;;;26.95;;
64520;SDS011;50896;46.714;17.322;2024-03-08T09:50:52;52.15;;;28.40;;
64520;SDS011;50896;46.714;17.322;2024-03-08T09:53:20;57.42;;;28.98;;
64520;SDS011;50896;46.714;17.322;2024-03-08T09:55:49;52.97;;;28.13;;
64520;SDS011;50896;46.714;17.322;2024-03-08T09:58:16;49.58;;;28.15;;
64520;SDS011;50896;46.714;17.322;2024-03-08T10:01:03;53.58;;;27.92;;
64520;SDS011;50896;46.714;17.322;2024-03-08T10:03:31;55.95;;;29.17;;
64520;SDS011;50896;46.714;17.322;2024-03-08T10:05:59;50.10;;;28.35;;
64520;SDS011;50896;46.714;17.322;2024-03-08T10:08:27;56.53;;;29.17;;
64520;SDS011;50896;46.714;17.322;2024-03-08T10:10:57;52.65;;;28.08;;
64520;SDS011;50896;46.714;17.322;2024-03-08T10:13:25;54.42;;;27.95;;
64520;SDS011;50896;46.714;17.322;2024-03-08T10:15:55;55.25;;;28.67;;
64520;SDS011;50896;46.714;17.322;2024-03-08T10:18:22;49.83;;;27.02;;
64520;SDS011;50896;46.714;17.322;2024-03-08T10:21:05;43.17;;;25.00;;
64520;SDS011;50896;46.714;17.322;2024-03-08T10:23:34;54.50;;;28.77;;
64520;SDS011;50896;46.714;17.322;2024-03-08T10:26:14;49.58;;;26.58;;
64520;SDS011;50896;46.714;17.322;2024-03-08T10:28:45;45.63;;;26.17;;
64520;SDS011;50896;46.714;17.322;2024-03-08T10:31:16;44.63;;;24.63;;
64520;SDS011;50896;46.714;17.322;2024-03-08T10:33:45;41.55;;;23.27;;
64520;SDS011;50896;46.714;17.322;2024-03-08T10:36:13;38.95;;;22.42;;
64520;SDS011;50896;46.714;17.322;2024-03-08T10:38:41;40.15;;;22.77;;
64520;SDS011;50896;46.714;17.322;2024-03-08T10:41:14;41.83;;;22.45;;
64520;SDS011;50896;46.714;17.322;2024-03-08T10:43:57;37.72;;;22.05;;
64520;SDS011;50896;46.714;17.322;2024-03-08T10:46:30;36.45;;;21.60;;
64520;SDS011;50896;46.714;17.322;2024-03-08T10:49:08;38.58;;;20.85;;
64520;SDS011;50896;46.714;17.322;2024-03-08T10:51:44;35.97;;;19.92;;
64520;SDS011;50896;46.714;17.322;2024-03-08T10:54:12;35.15;;;20.55;;
64520;SDS011;50896;46.714;17.322;2024-03-08T10:56:42;30.65;;;19.35;;
64520;SDS011;50896;46.714;17.322;2024-03-08T10:59:09;31.92;;;19.15;;
64520;SDS011;50896;46.714;17.322;2024-03-08T11:01:37;33.30;;;18.88;;
64520;SDS011;50896;46.714;17.322;2024-03-08T11:04:04;30.52;;;18.10;;
64520;SDS011;50896;46.714;17.322;2024-03-08T11:14:50;28.52;;;16.48;;
64520;SDS011;50896;46.714;17.322;2024-03-08T11:19:58;30.65;;;17.67;;
64520;SDS011;50896;46.714;17.322;2024-03-08T11:22:32;32.53;;;17.92;;
64520;SDS011;50896;46.714;17.322;2024-03-08T11:25:03;30.23;;;18.63;;
64520;SDS011;50896;46.714;17.322;2024-03-08T11:27:36;31.52;;;18.63;;
64520;SDS011;50896;46.714;17.322;2024-03-08T11:30:04;27.48;;;17.50;;
64520;SDS011;50896;46.714;17.322;2024-03-08T11:32:45;30.75;;;17.67;;
64520;SDS011;50896;46.714;17.322;2024-03-08T11:35:22;29.38;;;16.98;;
64520;SDS011;50896;46.714;17.322;2024-03-08T11:37:52;30.65;;;17.85;;
64520;SDS011;50896;46.714;17.322;2024-03-08T11:40:18;31.60;;;17.48;;
64520;SDS011;50896;46.714;17.322;2024-03-08T11:42:47;26.33;;;15.32;;
64520;SDS011;50896;46.714;17.322;2024-03-08T11:45:15;24.25;;;14.15;;
64520;SDS011;50896;46.714;17.322;2024-03-08T11:47:44;25.33;;;16.10;;
64520;SDS011;50896;46.714;17.322;2024-03-08T11:50:16;25.95;;;15.15;;
64520;SDS011;50896;46.714;17.322;2024-03-08T11:52:46;23.73;;;13.68;;
64520;SDS011;50896;46.714;17.322;2024-03-08T11:55:13;24.52;;;14.88;;
64520;SDS011;50896;46.714;17.322;2024-03-08T11:57:40;21.48;;;13.63;;
64520;SDS011;50896;46.714;17.322;2024-03-08T12:00:16;22.92;;;13.23;;
64520;SDS011;50896;46.714;17.322;2024-03-08T12:03:02;23.67;;;14.32;;
64520;SDS011;50896;46.714;17.322;2024-03-08T12:05:30;26.45;;;15.40;;
64520;SDS011;50896;46.714;17.322;2024-03-08T12:08:00;22.42;;;13.77;;
64520;SDS011;50896;46.714;17.322;2024-03-08T12:10:28;23.77;;;14.82;;
64520;SDS011;50896;46.714;17.322;2024-03-08T12:12:57;22.80;;;13.63;;
64520;SDS011;50896;46.714;17.322;2024-03-08T12:15:28;24.77;;;14.13;;
64520;SDS011;50896;46.714;17.322;2024-03-08T12:17:55;23.60;;;14.20;;
64520;SDS011;50896;46.714;17.322;2024-03-08T12:20:23;21.20;;;12.98;;
64520;SDS011;50896;46.714;17.322;2024-03-08T12:22:58;21.65;;;13.52;;
64520;SDS011;50896;46.714;17.322;2024-03-08T12:25:26;24.02;;;14.27;;
64520;SDS011;50896;46.714;17.322;2024-03-08T12:28:08;20.77;;;13.13;;
64520;SDS011;50896;46.714;17.322;2024-03-08T12:30:47;20.52;;;13.15;;
64520;SDS011;50896;46.714;17.322;2024-03-08T12:33:16;24.13;;;14.13;;
64520;SDS011;50896;46.714;17.322;2024-03-08T12:35:53;26.23;;;14.32;;
64520;SDS011;50896;46.714;17.322;2024-03-08T12:38:23;23.63;;;13.73;;
64520;SDS011;50896;46.714;17.322;2024-03-08T12:41:00;20.80;;;13.05;;
64520;SDS011;50896;46.714;17.322;2024-03-08T12:43:28;24.20;;;14.55;;
64520;SDS011;50896;46.714;17.322;2024-03-08T12:46:00;23.00;;;14.40;;
64520;SDS011;50896;46.714;17.322;2024-03-08T12:48:27;20.10;;;13.32;;
64520;SDS011;50896;46.714;17.322;2024-03-08T12:50:54;21.42;;;13.43;;
64520;SDS011;50896;46.714;17.322;2024-03-08T12:53:21;22.58;;;13.05;;
64520;SDS011;50896;46.714;17.322;2024-03-08T12:55:49;21.92;;;13.82;;
64520;SDS011;50896;46.714;17.322;2024-03-08T12:58:17;21.55;;;13.40;;
64520;SDS011;50896;46.714;17.322;2024-03-08T13:00:44;19.08;;;12.75;;
64520;SDS011;50896;46.714;17.322;2024-03-08T13:03:10;22.48;;;13.73;;
64520;SDS011;50896;46.714;17.322;2024-03-08T13:05:38;20.70;;;13.15;;
64520;SDS011;50896;46.714;17.322;2024-03-08T13:08:09;21.50;;;12.63;;
64520;SDS011;50896;46.714;17.322;2024-03-08T13:10:39;23.30;;;14.02;;
64520;SDS011;50896;46.714;17.322;2024-03-08T13:13:10;22.67;;;13.00;;
64520;SDS011;50896;46.714;17.322;2024-03-08T13:15:40;23.08;;;13.50;;
64520;SDS011;50896;46.714;17.322;2024-03-08T13:18:07;22.88;;;14.77;;
64520;SDS011;50896;46.714;17.322;2024-03-08T13:20:35;22.42;;;13.15;;
64520;SDS011;50896;46.714;17.322;2024-03-08T13:23:13;22.58;;;13.73;;
64520;SDS011;50896;46.714;17.322;2024-03-08T13:25:40;24.25;;;14.23;;
64520;SDS011;50896;46.714;17.322;2024-03-08T13:28:07;21.67;;;13.98;;
64520;SDS011;50896;46.714;17.322;2024-03-08T13:30:35;21.27;;;13.35;;
64520;SDS011;50896;46.714;17.322;2024-03-08T13:33:02;23.50;;;14.27;;
64520;SDS011;50896;46.714;17.322;2024-03-08T13:35:31;23.63;;;14.77;;
64520;SDS011;50896;46.714;17.322;2024-03-08T13:37:59;25.00;;;14.73;;
64520;SDS011;50896;46.714;17.322;2024-03-08T13:40:26;24.38;;;14.88;;
64520;SDS011;50896;46.714;17.322;2024-03-08T13:42:53;23.92;;;14.27;;
64520;SDS011;50896;46.714;17.322;2024-03-08T13:45:19;24.92;;;15.15;;
64520;SDS011;50896;46.714;17.322;2024-03-08T13:47:51;26.05;;;14.98;;
64520;SDS011;50896;46.714;17.322;2024-03-08T13:50:20;25.25;;;14.80;;
64520;SDS011;50896;46.714;17.322;2024-03-08T13:52:48;21.85;;;13.85;;
64520;SDS011;50896;46.714;17.322;2024-03-08T13:55:22;21.58;;;13.40;;
64520;SDS011;50896;46.714;17.322;2024-03-08T13:57:52;22.98;;;14.00;;
64520;SDS011;50896;46.714;17.322;2024-03-08T14:00:19;19.80;;;12.38;;
64520;SDS011;50896;46.714;17.322;2024-03-08T14:02:51;24.13;;;13.52;;
64520;SDS011;50896;46.714;17.322;2024-03-08T14:05:18;22.35;;;12.95;;
64520;SDS011;50896;46.714;17.322;2024-03-08T14:07:46;21.52;;;13.52;;
64520;SDS011;50896;46.714;17.322;2024-03-08T14:12:46;21.55;;;13.35;;
64520;SDS011;50896;46.714;17.322;2024-03-08T14:15:15;19.13;;;11.93;;
64520;SDS011;50896;46.714;17.322;2024-03-08T14:17:43;21.38;;;13.05;;
64520;SDS011;50896;46.714;17.322;2024-03-08T14:20:13;19.02;;;12.48;;
64520;SDS011;50896;46.714;17.322;2024-03-08T14:22:40;20.63;;;12.68;;
64520;SDS011;50896;46.714;17.322;2024-03-08T14:25:07;19.77;;;12.52;;
64520;SDS011;50896;46.714;17.322;2024-03-08T14:27:44;19.42;;;11.23;;
64520;SDS011;50896;46.714;17.322;2024-03-08T14:30:13;18.27;;;11.65;;
64520;SDS011;50896;46.714;17.322;2024-03-08T14:32:40;20.40;;;11.70;;
64520;SDS011;50896;46.714;17.322;2024-03-08T14:35:08;18.83;;;11.73;;